Main page
METAR-TAF:

METAR-TAF

Airports :

Menorca Airport

Minorca, Spain

latitude: 39-52N, longitude: 004-14E, elevation: 87 m

Current weather observation

The report was made 22 minutes ago, at 05:30 UTC
Wind 7 kt from the Southwest
Temperature 27°C
Humidity 89%
Pressure 1010 hPa
Visibility 10 km or more
no clouds below 1500 m and no cumulonimbus

METAR: LEMH 130530Z 23007KT CAVOK 27/25 Q1010

Time: 07:52 (05:52 UTC)

Forecast

The report was made 3 hours and 52 minutes ago, at 02:00 UTC
Forecast valid from 13 at 03 UTC to 14 at 03 UTC
Wind 10 kt from the Southwest
Visibility 10 km or more
no clouds below 1500 m and no cumulonimbus
Becoming
from 13 at 13 UTC to 13 at 16 UTC
Wind 3 kt from variable directions

TAF: LEMH 130200Z 1303/1403 23010KT CAVOK TX35/1312Z TN23/1305Z BECMG 1313/1316 VRB03KT

Weather observations and forecasts of more than 4000 airports (METAR and TAF reports).

The available stations are represented by yellow and red dots on the map.

Hover mouse over dot to see the name of the station.

Then click to see weather observations and forecasts.

To change the map : click on the green buttons with a black cross to zoom in, on the green button with a dash to zoom out, or on the green arrows for adjacent maps.


METAR-TAF: